createdAt,value
2023-10-20T00:00:47.974Z,97986.40
2023-10-20T00:02:20.052Z,97980.00
2023-10-20T00:03:52.118Z,97974.60
2023-10-20T00:05:24.052Z,97973.00
2023-10-20T00:06:55.849Z,97974.60
2023-10-20T00:08:27.693Z,97973.20
2023-10-20T00:10:01.114Z,97971.80
2023-10-20T00:11:34.251Z,97973.40
2023-10-20T00:13:07.472Z,97975.60
2023-10-20T00:14:39.468Z,97968.60
2023-10-20T00:16:11.876Z,97969.80
2023-10-20T00:17:43.988Z,97971.00
2023-10-20T00:19:15.869Z,97965.60
2023-10-20T00:20:47.615Z,97963.00
2023-10-20T00:22:19.547Z,97956.00
2023-10-20T00:23:51.413Z,97965.60
2023-10-20T00:25:24.013Z,97968.60
2023-10-20T00:26:55.747Z,97964.00
2023-10-20T00:28:27.467Z,97964.00
2023-10-20T00:29:59.266Z,97966.60
2023-10-20T00:31:31.662Z,97960.20
2023-10-20T00:33:04.547Z,97955.20
2023-10-20T00:34:36.465Z,97955.60
2023-10-20T00:36:10.755Z,97953.40
2023-10-20T00:37:42.883Z,97953.60
2023-10-20T00:39:15.244Z,97948.60
2023-10-20T00:40:50.550Z,97950.00
2023-10-20T00:42:23.152Z,97946.00
2023-10-20T00:43:54.977Z,97943.80
2023-10-20T00:45:28.316Z,97945.40
2023-10-20T00:47:00.253Z,97948.00
2023-10-20T00:48:35.353Z,97944.80
2023-10-20T00:50:12.783Z,97941.60
2023-10-20T00:51:45.121Z,97941.80
2023-10-20T00:53:19.019Z,97943.00
2023-10-20T00:54:51.722Z,97941.60
2023-10-20T00:56:24.206Z,97938.40
2023-10-20T00:57:56.144Z,97933.00
2023-10-20T00:59:28.745Z,97929.00
2023-10-20T01:01:00.792Z,97921.20
2023-10-20T01:02:33.875Z,97918.80
2023-10-20T01:04:06.925Z,97914.40
2023-10-20T01:05:39.560Z,97912.40
2023-10-20T01:07:12.136Z,97905.40
2023-10-20T01:08:43.974Z,97895.60
2023-10-20T01:10:16.199Z,97888.80
2023-10-20T01:11:47.953Z,97879.40
2023-10-20T01:13:20.472Z,97872.80
2023-10-20T01:14:52.368Z,97869.60
2023-10-20T01:16:24.657Z,97861.20
2023-10-20T01:17:56.676Z,97862.00
2023-10-20T01:19:28.666Z,97860.40
2023-10-20T01:21:00.476Z,97861.20
2023-10-20T01:22:32.209Z,97863.40
2023-10-20T01:24:06.513Z,97864.00
2023-10-20T01:25:38.595Z,97861.60
2023-10-20T01:27:10.504Z,97856.20
2023-10-20T01:28:43.831Z,97855.60
2023-10-20T01:30:16.283Z,97855.40
2023-10-20T01:31:50.149Z,97854.60
2023-10-20T01:33:22.055Z,97855.20
2023-10-20T01:34:54.013Z,97849.40
2023-10-20T01:36:25.799Z,97846.00
2023-10-20T01:37:57.566Z,97846.20
2023-10-20T01:39:30.504Z,97840.60
2023-10-20T01:41:02.851Z,97844.00
2023-10-20T01:42:34.718Z,97842.00
2023-10-20T01:44:06.737Z,97833.80
2023-10-20T01:45:38.575Z,97835.40
2023-10-20T01:47:10.579Z,97826.80
2023-10-20T01:48:42.405Z,97826.20
2023-10-20T01:50:14.209Z,97823.00
2023-10-20T01:51:47.531Z,97822.80
2023-10-20T01:53:19.371Z,97819.60
2023-10-20T01:54:51.208Z,97812.40
2023-10-20T01:56:23.090Z,97805.80
2023-10-20T01:57:55.148Z,97803.20
2023-10-20T01:59:27.043Z,97810.80
2023-10-20T02:00:59.047Z,97813.60
2023-10-20T02:02:30.939Z,97813.80
2023-10-20T02:04:03.057Z,97808.40
2023-10-20T02:05:35.074Z,97801.40
2023-10-20T02:07:09.565Z,97804.20
2023-10-20T02:08:41.348Z,97805.20
2023-10-20T02:10:13.212Z,97800.00
2023-10-20T02:11:45.057Z,97801.40
2023-10-20T02:13:16.970Z,97798.00
2023-10-20T02:14:48.945Z,97796.40
2023-10-20T02:16:20.785Z,97792.60
2023-10-20T02:17:52.665Z,97796.00
2023-10-20T02:19:24.497Z,97790.80
2023-10-20T02:21:01.091Z,97785.60
2023-10-20T02:22:33.642Z,97782.80
2023-10-20T02:24:05.759Z,97777.20
2023-10-20T02:25:37.828Z,97778.80
2023-10-20T02:27:09.845Z,97777.20
2023-10-20T02:28:41.716Z,97777.60
2023-10-20T02:30:15.470Z,97771.20
2023-10-20T02:31:47.441Z,97769.20
2023-10-20T02:33:20.486Z,97761.40
2023-10-20T02:34:52.323Z,97758.60
2023-10-20T02:36:24.778Z,97761.40
2023-10-20T02:37:56.564Z,97750.20
2023-10-20T02:39:28.597Z,97747.40
2023-10-20T02:41:01.397Z,97739.80
2023-10-20T02:42:34.019Z,97744.60
2023-10-20T02:44:06.391Z,97743.60
2023-10-20T02:45:38.176Z,97737.60
2023-10-20T02:47:09.970Z,97732.00
2023-10-20T02:48:41.782Z,97725.60
2023-10-20T02:50:13.810Z,97719.60
2023-10-20T02:51:45.564Z,97719.00
2023-10-20T02:53:19.139Z,97716.60
2023-10-20T02:54:54.728Z,97718.60
2023-10-20T02:56:29.744Z,97714.40
2023-10-20T02:58:02.028Z,97709.20
2023-10-20T02:59:33.828Z,97710.60
2023-10-20T03:01:10.734Z,97703.00
2023-10-20T03:02:42.698Z,97700.20
2023-10-20T03:04:18.657Z,97698.00
2023-10-20T03:05:50.649Z,97702.00
2023-10-20T03:07:26.065Z,97701.80
2023-10-20T03:08:57.907Z,97687.80
2023-10-20T03:10:29.978Z,97681.40
2023-10-20T03:12:01.771Z,97677.40
2023-10-20T03:13:33.719Z,97679.40
2023-10-20T03:15:09.059Z,97676.20
2023-10-20T03:16:44.401Z,97674.00
2023-10-20T03:18:18.186Z,97668.60
2023-10-20T03:19:50.852Z,97668.00
2023-10-20T03:21:22.837Z,97664.80
2023-10-20T03:22:57.988Z,97658.80
2023-10-20T03:24:30.453Z,97655.40
2023-10-20T03:26:02.387Z,97654.40
2023-10-20T03:27:34.198Z,97644.40
2023-10-20T03:29:07.008Z,97642.20
2023-10-20T03:30:41.054Z,97636.00
2023-10-20T03:32:12.966Z,97627.80
2023-10-20T03:33:44.741Z,97625.40
2023-10-20T03:35:17.546Z,97614.00
2023-10-20T03:36:49.506Z,97604.60
2023-10-20T03:38:21.252Z,97603.40
2023-10-20T03:39:53.620Z,97601.40
2023-10-20T03:41:26.441Z,97599.40
2023-10-20T03:42:59.572Z,97609.00
2023-10-20T03:44:31.542Z,97608.80
2023-10-20T03:46:05.705Z,97609.00
2023-10-20T03:47:41.747Z,97610.20
2023-10-20T03:49:13.807Z,97615.20
2023-10-20T03:50:47.808Z,97612.20
2023-10-20T03:52:22.076Z,97613.20
2023-10-20T03:53:56.297Z,97615.40
2023-10-20T03:55:28.264Z,97618.40
2023-10-20T03:57:00.069Z,97618.20
2023-10-20T03:58:32.185Z,97611.60
2023-10-20T04:00:18.749Z,97610.00
2023-10-20T04:01:50.843Z,97603.20
2023-10-20T04:03:27.879Z,97586.00
2023-10-20T04:04:59.738Z,97586.80
2023-10-20T04:06:31.655Z,97593.80
2023-10-20T04:08:06.982Z,97598.40
2023-10-20T04:09:40.153Z,97604.00
2023-10-20T04:11:13.908Z,97602.60
2023-10-20T04:12:46.727Z,97593.40
2023-10-20T04:14:18.742Z,97570.00
2023-10-20T04:15:53.035Z,97542.60
2023-10-20T04:17:25.076Z,97535.80
2023-10-20T04:18:57.011Z,97543.20
2023-10-20T04:20:28.866Z,97547.40
2023-10-20T04:22:03.666Z,97548.60
2023-10-20T04:23:35.637Z,97543.40
2023-10-20T04:25:13.671Z,97532.40
2023-10-20T04:26:45.746Z,97531.60
2023-10-20T04:28:19.862Z,97536.40
2023-10-20T04:30:09.900Z,97541.20
2023-10-20T04:32:00.586Z,97542.00
2023-10-20T04:33:51.597Z,97542.60
2023-10-20T04:35:41.769Z,97540.40
2023-10-20T04:37:31.860Z,97528.60
2023-10-20T04:39:21.884Z,97518.80
2023-10-20T04:41:12.298Z,97516.40
2023-10-20T04:42:46.837Z,97527.80
2023-10-20T04:44:18.880Z,97527.20
2023-10-20T04:45:58.639Z,97521.00
2023-10-20T04:47:50.962Z,97514.60
2023-10-20T04:49:41.358Z,97512.00
2023-10-20T04:51:21.620Z,97511.00
2023-10-20T04:53:41.554Z,97510.00
2023-10-20T04:55:30.857Z,97491.80
2023-10-20T04:57:21.233Z,97469.80
2023-10-20T04:58:52.962Z,97461.40
2023-10-20T05:00:25.212Z,97459.20
2023-10-20T05:02:00.954Z,97456.60
2023-10-20T05:03:36.298Z,97453.20
2023-10-20T05:05:18.383Z,97443.80
2023-10-20T05:06:59.355Z,97443.40
2023-10-20T05:08:31.305Z,97441.00
2023-10-20T05:10:06.018Z,97434.40
2023-10-20T05:11:47.661Z,97430.00
2023-10-20T05:13:30.295Z,97423.20
2023-10-20T05:15:06.457Z,97428.40
2023-10-20T05:16:38.270Z,97423.00
2023-10-20T05:18:15.000Z,97420.60
2023-10-20T05:19:49.059Z,97408.00
2023-10-20T05:21:20.810Z,97402.00
2023-10-20T05:22:52.577Z,97397.40
2023-10-20T05:24:24.378Z,97397.60
2023-10-20T05:25:56.375Z,97392.80
2023-10-20T05:27:28.109Z,97396.60
2023-10-20T05:29:00.650Z,97389.80
2023-10-20T05:30:32.478Z,97390.20
2023-10-20T05:32:07.580Z,97389.00
2023-10-20T05:33:39.517Z,97387.20
2023-10-20T05:35:11.549Z,97393.00
2023-10-20T05:36:43.795Z,97388.80
2023-10-20T05:38:15.774Z,97391.00
2023-10-20T05:39:47.597Z,97389.80
2023-10-20T05:41:19.415Z,97391.60
2023-10-20T05:42:51.272Z,97388.20
2023-10-20T05:44:25.593Z,97384.20
2023-10-20T05:45:57.408Z,97380.60
2023-10-20T05:47:32.890Z,97378.80
2023-10-20T05:49:04.934Z,97378.20
2023-10-20T05:50:39.176Z,97369.60
2023-10-20T05:52:11.136Z,97363.60
2023-10-20T05:53:43.035Z,97354.40
2023-10-20T05:55:14.962Z,97364.80
2023-10-20T05:56:46.874Z,97366.20
2023-10-20T05:58:18.837Z,97364.60
2023-10-20T05:59:51.684Z,97360.20
2023-10-20T06:01:23.676Z,97355.00
2023-10-20T06:02:56.516Z,97360.40
2023-10-20T06:04:28.683Z,97360.80
2023-10-20T06:06:04.978Z,97362.60
2023-10-20T06:07:36.887Z,97366.80
2023-10-20T06:09:08.719Z,97370.80
2023-10-20T06:10:40.519Z,97377.20
2023-10-20T06:12:13.326Z,97383.20
2023-10-20T06:16:28.105Z,97374.40
2023-10-20T06:18:00.038Z,97377.80
2023-10-20T06:19:32.846Z,97368.40
2023-10-20T06:21:06.772Z,97367.60
2023-10-20T06:22:38.703Z,97367.20
2023-10-20T06:24:11.090Z,97369.60
2023-10-20T06:25:43.772Z,97373.80
2023-10-20T06:27:15.711Z,97370.20
2023-10-20T06:28:48.788Z,97365.60
2023-10-20T06:30:25.107Z,97364.60
2023-10-20T06:32:07.428Z,97364.40
2023-10-20T06:33:39.354Z,97365.80
2023-10-20T06:35:17.948Z,97364.40
2023-10-20T06:36:50.099Z,97362.80
2023-10-20T06:38:46.459Z,97366.80
2023-10-20T06:40:18.665Z,97358.20
2023-10-20T06:41:50.553Z,97350.80
2023-10-20T06:43:26.274Z,97346.20
2023-10-20T06:44:58.073Z,97344.20
2023-10-20T06:46:29.884Z,97349.80
2023-10-20T06:48:01.975Z,97344.00
2023-10-20T06:49:34.078Z,97336.40
2023-10-20T06:51:05.988Z,97343.60
2023-10-20T06:52:37.855Z,97346.40
2023-10-20T06:54:09.609Z,97345.80
2023-10-20T06:56:09.903Z,97341.60
2023-10-20T06:57:42.734Z,97341.60
2023-10-20T06:59:17.847Z,97338.60
2023-10-20T07:00:49.927Z,97335.40
2023-10-20T07:02:22.290Z,97326.40
2023-10-20T07:03:54.368Z,97330.00
2023-10-20T07:05:26.964Z,97322.80
2023-10-20T07:06:59.519Z,97316.00
2023-10-20T07:08:31.231Z,97309.00
2023-10-20T07:10:04.882Z,97306.40
2023-10-20T07:11:36.580Z,97312.80
2023-10-20T07:13:11.927Z,97318.80
2023-10-20T07:14:47.123Z,97326.60
2023-10-20T07:16:19.504Z,97332.20
2023-10-20T07:17:51.521Z,97333.80
2023-10-20T07:19:26.333Z,97330.00
2023-10-20T07:20:58.985Z,97333.20
2023-10-20T07:22:31.448Z,97334.80
2023-10-20T07:24:04.451Z,97336.20
2023-10-20T07:25:36.427Z,97329.40
2023-10-20T07:27:08.199Z,97327.80
2023-10-20T07:28:40.038Z,97326.00
2023-10-20T07:30:12.469Z,97321.20
2023-10-20T07:31:47.225Z,97323.20
2023-10-20T07:33:19.140Z,97324.60
2023-10-20T07:34:52.680Z,97325.20
2023-10-20T07:36:24.691Z,97317.80
2023-10-20T07:37:56.513Z,97313.20
2023-10-20T07:39:28.290Z,97311.20
2023-10-20T07:41:08.592Z,97311.20
2023-10-20T07:42:42.161Z,97303.80
2023-10-20T07:44:19.378Z,97309.40
2023-10-20T07:45:51.430Z,97309.20
2023-10-20T07:47:23.354Z,97307.60
2023-10-20T07:48:55.212Z,97312.60
2023-10-20T07:50:27.166Z,97310.00
2023-10-20T07:52:00.016Z,97311.60
2023-10-20T07:53:32.577Z,97309.60
2023-10-20T07:55:05.277Z,97304.00
2023-10-20T07:56:39.570Z,97303.20
2023-10-20T07:58:11.420Z,97302.60
2023-10-20T07:59:43.229Z,97300.00
2023-10-20T08:01:15.979Z,97307.80
2023-10-20T08:02:51.034Z,97300.20
2023-10-20T08:04:24.264Z,97302.40
2023-10-20T08:05:56.656Z,97297.80
2023-10-20T08:07:28.857Z,97296.60
2023-10-20T08:09:00.858Z,97296.60
2023-10-20T08:10:36.962Z,97296.20
2023-10-20T08:12:09.014Z,97299.20
2023-10-20T08:13:40.803Z,97294.20
2023-10-20T08:15:13.734Z,97295.00
2023-10-20T08:16:45.693Z,97300.40
2023-10-20T08:18:18.091Z,97302.20
2023-10-20T08:19:50.007Z,97298.40
2023-10-20T08:21:27.191Z,97301.80
2023-10-20T08:22:59.033Z,97299.60
2023-10-20T08:24:34.108Z,97297.40
2023-10-20T08:26:06.749Z,97302.00
2023-10-20T08:27:39.148Z,97291.60
2023-10-20T08:29:13.011Z,97298.20
2023-10-20T08:30:45.014Z,97297.80
2023-10-20T08:32:17.073Z,97298.60
2023-10-20T08:33:49.875Z,97302.20
2023-10-20T08:35:22.716Z,97300.60
2023-10-20T08:36:54.545Z,97304.40
2023-10-20T08:38:29.071Z,97302.20
2023-10-20T08:40:01.038Z,97299.60
2023-10-20T08:41:33.585Z,97305.60
2023-10-20T08:43:06.406Z,97306.80
2023-10-20T08:44:38.640Z,97308.20
2023-10-20T08:46:14.629Z,97313.60
2023-10-20T08:47:47.228Z,97312.00
2023-10-20T08:49:20.255Z,97312.80
2023-10-20T08:50:55.916Z,97309.60
2023-10-20T08:52:29.383Z,97304.60
2023-10-20T08:54:04.954Z,97300.20
2023-10-20T08:55:37.857Z,97307.40
2023-10-20T08:57:10.406Z,97303.60
2023-10-20T08:58:47.879Z,97304.60
2023-10-20T09:00:23.506Z,97308.80
2023-10-20T09:01:57.423Z,97309.80
2023-10-20T09:03:39.709Z,97306.20
2023-10-20T09:05:11.676Z,97303.40
2023-10-20T09:06:43.530Z,97309.20
2023-10-20T09:08:15.306Z,97309.80
2023-10-20T09:09:47.111Z,97306.60
2023-10-20T09:11:34.522Z,97307.80
2023-10-20T09:13:06.345Z,97307.00
2023-10-20T09:14:41.024Z,97304.00
2023-10-20T09:16:14.619Z,97302.80
2023-10-20T09:17:55.404Z,97303.80
2023-10-20T09:19:28.062Z,97305.60
2023-10-20T09:21:07.067Z,97312.60
2023-10-20T09:22:39.566Z,97314.20
2023-10-20T09:24:13.230Z,97313.40
2023-10-20T09:25:45.680Z,97314.00
2023-10-20T09:27:17.557Z,97317.20
2023-10-20T09:29:00.052Z,97316.20
2023-10-20T09:30:33.801Z,97317.60
2023-10-20T09:32:07.371Z,97311.60
2023-10-20T09:33:39.764Z,97309.00
2023-10-20T09:35:12.265Z,97312.00
2023-10-20T09:36:48.817Z,97311.00
2023-10-20T09:38:28.075Z,97310.60
2023-10-20T09:40:07.990Z,97312.60
2023-10-20T09:41:49.969Z,97307.40
2023-10-20T09:43:32.832Z,97306.00
2023-10-20T09:45:16.004Z,97300.00
2023-10-20T09:47:08.334Z,97305.40
2023-10-20T09:48:42.367Z,97302.60
2023-10-20T09:50:15.754Z,97306.00
2023-10-20T09:51:53.811Z,97308.40
2023-10-20T09:53:27.360Z,97299.60
2023-10-20T09:55:01.430Z,97296.20
2023-10-20T09:56:33.638Z,97300.20
2023-10-20T09:58:05.488Z,97299.20
2023-10-20T09:59:42.832Z,97295.40
2023-10-20T10:01:16.788Z,97294.80
2023-10-20T10:02:59.346Z,97292.80
2023-10-20T10:04:41.287Z,97298.80
2023-10-20T10:06:19.525Z,97301.00
2023-10-20T10:08:08.195Z,97297.20
2023-10-20T10:09:50.298Z,97296.40
2023-10-20T10:11:27.313Z,97302.80
2023-10-20T10:13:06.022Z,97300.60
2023-10-20T10:14:38.649Z,97301.40
2023-10-20T10:16:14.943Z,97300.80
2023-10-20T10:17:49.902Z,97302.40
2023-10-20T10:19:27.064Z,97300.60
2023-10-20T10:21:06.530Z,97299.40
2023-10-20T10:22:43.077Z,97304.40
2023-10-20T10:24:19.876Z,97303.40
2023-10-20T10:25:52.420Z,97304.40
2023-10-20T10:27:30.980Z,97297.20
2023-10-20T10:29:02.870Z,97291.20
2023-10-20T10:30:35.059Z,97295.60
2023-10-20T10:32:21.149Z,97291.60
2023-10-20T10:34:02.653Z,97295.00
2023-10-20T10:35:35.479Z,97284.60
2023-10-20T10:37:07.862Z,97281.40
2023-10-20T10:38:46.889Z,97273.00
2023-10-20T10:40:23.780Z,97280.40
2023-10-20T10:42:03.594Z,97272.00
2023-10-20T10:43:35.373Z,97268.60
2023-10-20T10:45:35.575Z,97258.60
2023-10-20T10:47:20.258Z,97251.80
2023-10-20T10:48:53.860Z,97256.00
2023-10-20T10:50:25.727Z,97260.40
2023-10-20T10:51:57.787Z,97258.20
2023-10-20T10:53:29.601Z,97254.80
2023-10-20T10:55:01.444Z,97246.80
2023-10-20T10:56:33.343Z,97249.40
2023-10-20T10:58:11.616Z,97247.00
2023-10-20T10:59:45.581Z,97239.00
2023-10-20T11:01:18.272Z,97240.20
2023-10-20T11:02:50.591Z,97237.80
2023-10-20T11:04:22.894Z,97233.40
2023-10-20T11:05:55.719Z,97227.00
2023-10-20T11:07:27.675Z,97227.40
2023-10-20T11:08:59.462Z,97226.20
2023-10-20T11:10:36.233Z,97228.80
2023-10-20T11:12:14.705Z,97228.00
2023-10-20T11:13:46.510Z,97223.80
2023-10-20T11:15:18.252Z,97225.40
2023-10-20T11:16:50.582Z,97225.20
2023-10-20T11:18:22.656Z,97224.40
2023-10-20T11:19:55.366Z,97220.40
2023-10-20T11:21:27.498Z,97224.20
2023-10-20T11:22:59.671Z,97224.60
2023-10-20T11:24:37.613Z,97223.20
2023-10-20T11:26:18.352Z,97216.80
2023-10-20T11:27:55.251Z,97213.20
2023-10-20T11:29:39.794Z,97213.60
2023-10-20T11:31:20.267Z,97204.40
2023-10-20T11:32:56.580Z,97207.20
2023-10-20T11:34:28.464Z,97199.00
2023-10-20T11:36:02.152Z,97202.80
2023-10-20T11:37:36.352Z,97202.00
2023-10-20T11:39:08.105Z,97203.60
2023-10-20T11:40:42.699Z,97200.40
2023-10-20T11:42:14.644Z,97204.60
2023-10-20T11:43:46.438Z,97205.00
2023-10-20T11:45:19.084Z,97205.80
2023-10-20T11:46:53.606Z,97195.20
2023-10-20T11:48:25.471Z,97192.80
2023-10-20T11:49:58.560Z,97186.00
2023-10-20T11:51:30.626Z,97183.20
2023-10-20T11:53:02.781Z,97185.20
2023-10-20T11:54:34.677Z,97191.40
2023-10-20T11:56:06.981Z,97188.00
2023-10-20T11:57:42.428Z,97196.80
2023-10-20T11:59:16.212Z,97193.60
2023-10-20T12:00:49.017Z,97187.40
2023-10-20T12:02:22.422Z,97186.20
2023-10-20T12:03:56.617Z,97175.00
2023-10-20T12:05:28.513Z,97167.40
2023-10-20T12:07:03.786Z,97161.20
2023-10-20T12:08:35.841Z,97151.80
2023-10-20T12:10:08.461Z,97146.60
2023-10-20T12:11:40.309Z,97147.40
2023-10-20T12:13:13.636Z,97147.00
2023-10-20T12:14:46.177Z,97144.80
2023-10-20T12:16:20.463Z,97142.20
2023-10-20T12:17:52.484Z,97140.80
2023-10-20T12:19:25.112Z,97139.60
2023-10-20T12:20:56.965Z,97147.60
2023-10-20T12:22:29.345Z,97150.80
2023-10-20T12:24:01.698Z,97153.20
2023-10-20T12:25:33.520Z,97151.40
2023-10-20T12:27:05.245Z,97151.60
2023-10-20T12:28:37.115Z,97148.20
2023-10-20T12:30:12.306Z,97145.80
2023-10-20T12:31:44.304Z,97137.80
2023-10-20T12:33:16.541Z,97138.00
2023-10-20T12:34:48.376Z,97132.20
2023-10-20T12:36:20.293Z,97128.00
2023-10-20T12:37:52.174Z,97126.60
2023-10-20T12:39:24.150Z,97121.00
2023-10-20T12:40:56.000Z,97120.20
2023-10-20T12:42:29.021Z,97124.20
2023-10-20T12:44:00.823Z,97122.80
2023-10-20T12:45:33.904Z,97126.60
2023-10-20T12:47:07.533Z,97135.40
2023-10-20T12:48:40.571Z,97130.60
2023-10-20T12:50:12.972Z,97126.20
2023-10-20T12:51:44.845Z,97119.20
2023-10-20T12:53:16.714Z,97112.40
2023-10-20T12:54:48.542Z,97107.80
2023-10-20T12:56:20.592Z,97108.00
2023-10-20T12:57:52.377Z,97105.60
2023-10-20T12:59:24.143Z,97103.20
2023-10-20T13:00:56.103Z,97099.60
2023-10-20T13:02:27.898Z,97101.20
2023-10-20T13:04:00.772Z,97099.60
2023-10-20T13:05:32.775Z,97102.20
2023-10-20T13:07:04.601Z,97100.80
2023-10-20T13:08:37.332Z,97106.20
2023-10-20T13:10:10.528Z,97106.20
2023-10-20T13:11:42.304Z,97106.60
2023-10-20T13:13:18.370Z,97107.80
2023-10-20T13:14:50.311Z,97110.80
2023-10-20T13:16:22.213Z,97108.40
2023-10-20T13:17:54.083Z,97107.20
2023-10-20T13:19:26.188Z,97112.40
2023-10-20T13:20:57.985Z,97115.40
2023-10-20T13:22:29.819Z,97122.00
2023-10-20T13:24:01.611Z,97124.00
2023-10-20T13:25:36.710Z,97122.60
2023-10-20T13:27:08.683Z,97122.60
2023-10-20T13:28:40.462Z,97127.40
2023-10-20T13:30:13.843Z,97118.40
2023-10-20T13:31:45.917Z,97123.60
2023-10-20T13:33:17.859Z,97125.00
2023-10-20T13:34:50.726Z,97133.40
2023-10-20T13:36:23.058Z,97130.00
2023-10-20T13:37:54.858Z,97125.80
2023-10-20T13:41:01.576Z,97127.80
2023-10-20T13:42:33.420Z,97129.80
2023-10-20T13:44:05.533Z,97118.60
2023-10-20T13:45:39.042Z,97118.20
2023-10-20T13:47:13.370Z,97116.20
2023-10-20T13:48:46.670Z,97104.20
2023-10-20T13:50:18.725Z,97101.20
2023-10-20T13:51:50.508Z,97096.20
2023-10-20T13:53:22.590Z,97100.60
2023-10-20T13:54:54.423Z,97098.00
2023-10-20T13:56:26.370Z,97097.00
2023-10-20T13:57:58.978Z,97092.80
2023-10-20T13:59:30.824Z,97094.00
2023-10-20T14:01:04.106Z,97093.00
2023-10-20T14:02:36.369Z,97096.40
2023-10-20T14:04:09.317Z,97098.20
2023-10-20T14:05:41.873Z,97098.40
2023-10-20T14:07:13.780Z,97102.00
2023-10-20T14:08:46.289Z,97105.40
2023-10-20T14:10:18.690Z,97100.60
2023-10-20T14:11:51.140Z,97098.80
2023-10-20T14:13:23.100Z,97091.00
2023-10-20T14:14:54.901Z,97098.40
2023-10-20T14:16:26.946Z,97101.80
2023-10-20T14:18:00.561Z,97107.00
2023-10-20T14:19:35.438Z,97100.60
2023-10-20T14:21:07.658Z,97088.00
2023-10-20T14:22:39.713Z,97081.80
2023-10-20T14:24:11.562Z,97096.60
2023-10-20T14:25:44.292Z,97101.40
2023-10-20T14:27:16.103Z,97107.00
2023-10-20T14:28:47.943Z,97112.20
2023-10-20T14:30:19.778Z,97118.40
2023-10-20T14:31:51.510Z,97119.60
2023-10-20T14:33:23.979Z,97121.00
2023-10-20T14:34:56.572Z,97121.00
2023-10-20T14:36:29.879Z,97129.40
2023-10-20T14:38:01.579Z,97140.80
2023-10-20T14:39:35.642Z,97135.20
2023-10-20T14:41:08.962Z,97131.80
2023-10-20T14:42:40.951Z,97128.60
2023-10-20T14:44:12.879Z,97128.80
2023-10-20T14:45:44.673Z,97135.40
2023-10-20T14:47:16.554Z,97129.00
2023-10-20T15:01:47.214Z,97155.00
2023-10-20T15:03:23.191Z,97161.80
2023-10-20T15:04:55.353Z,97162.80
2023-10-20T15:06:27.323Z,97165.80
2023-10-20T15:07:59.056Z,97161.40
2023-10-20T15:09:30.837Z,97159.40
2023-10-20T15:11:09.432Z,97159.40
2023-10-20T15:12:43.951Z,97158.20
2023-10-20T15:14:17.431Z,97164.60
2023-10-20T15:15:49.386Z,97171.40
2023-10-20T15:17:21.173Z,97171.40
2023-10-20T15:18:53.011Z,97169.20
2023-10-20T15:20:25.269Z,97174.60
2023-10-20T15:21:57.077Z,97172.80
2023-10-20T15:23:28.917Z,97173.60
2023-10-20T15:25:00.663Z,97169.00
2023-10-20T15:26:35.263Z,97176.80
2023-10-20T15:28:10.895Z,97180.20
2023-10-20T15:29:48.967Z,97178.20
2023-10-20T15:31:30.526Z,97184.00
2023-10-20T15:33:12.042Z,97185.60
2023-10-20T15:34:44.021Z,97192.60
2023-10-20T15:36:15.858Z,97192.40
2023-10-20T15:37:47.699Z,97196.60
2023-10-20T15:39:36.110Z,97194.20
2023-10-20T15:41:15.131Z,97195.60
2023-10-20T15:42:46.972Z,97196.60
2023-10-20T15:44:19.115Z,97206.20
2023-10-20T15:45:50.920Z,97210.40
2023-10-20T15:47:22.823Z,97215.80
2023-10-20T15:48:54.742Z,97222.40
2023-10-20T15:50:26.601Z,97222.80
2023-10-20T15:51:59.371Z,97223.60
2023-10-20T15:53:31.268Z,97226.40
2023-10-20T15:55:05.093Z,97231.20
2023-10-20T15:56:37.874Z,97231.40
2023-10-20T15:58:14.332Z,97236.20
2023-10-20T15:59:48.128Z,97247.00
2023-10-20T16:01:22.547Z,97246.80
2023-10-20T16:02:54.499Z,97253.40
2023-10-20T16:04:27.881Z,97260.20
2023-10-20T16:06:00.605Z,97260.40
2023-10-20T16:07:32.650Z,97263.20
2023-10-20T16:09:08.325Z,97269.80
2023-10-20T16:10:40.148Z,97277.60
2023-10-20T16:12:11.954Z,97279.00
2023-10-20T16:13:53.612Z,97280.60
2023-10-20T16:15:26.825Z,97286.40
2023-10-20T16:16:58.592Z,97294.60
2023-10-20T16:18:30.439Z,97296.80
2023-10-20T16:20:03.558Z,97299.60
2023-10-20T16:21:35.583Z,97301.80
2023-10-20T16:23:18.243Z,97302.80
2023-10-20T16:24:50.135Z,97306.00
2023-10-20T16:26:22.056Z,97309.20
2023-10-20T16:27:53.913Z,97308.60
2023-10-20T16:29:26.587Z,97309.00
2023-10-20T16:31:01.425Z,97309.60
2023-10-20T16:32:38.038Z,97309.80
2023-10-20T16:34:11.050Z,97313.80
2023-10-20T16:35:48.273Z,97320.60
2023-10-20T16:37:20.566Z,97327.20
2023-10-20T16:38:53.421Z,97328.20
2023-10-20T16:40:25.329Z,97330.00
2023-10-20T16:41:57.743Z,97329.20
2023-10-20T16:43:29.642Z,97334.80
2023-10-20T16:45:07.732Z,97335.40
2023-10-20T16:46:41.945Z,97343.00
2023-10-20T16:48:14.754Z,97344.80
2023-10-20T16:49:49.568Z,97345.20
2023-10-20T16:51:21.864Z,97343.80
2023-10-20T16:52:53.668Z,97353.20
2023-10-20T16:54:25.875Z,97358.20
2023-10-20T16:56:02.718Z,97358.80
2023-10-20T16:57:34.708Z,97363.20
2023-10-20T16:59:07.145Z,97364.20
2023-10-20T17:00:39.501Z,97360.60
2023-10-20T17:02:11.672Z,97365.00
2023-10-20T17:03:43.575Z,97369.00
2023-10-20T17:05:15.596Z,97368.00
2023-10-20T17:06:47.467Z,97373.40
2023-10-20T17:08:20.821Z,97378.20
2023-10-20T17:09:54.547Z,97378.20
2023-10-20T17:11:26.831Z,97380.20
2023-10-20T17:12:58.727Z,97381.00
2023-10-20T17:14:30.635Z,97387.00
2023-10-20T17:16:07.255Z,97385.20
2023-10-20T17:17:39.156Z,97389.20
2023-10-20T17:19:11.304Z,97394.80
2023-10-20T17:20:43.236Z,97393.20
2023-10-20T17:22:15.072Z,97396.20
2023-10-20T17:23:47.992Z,97400.40
2023-10-20T17:25:19.900Z,97405.40
2023-10-20T17:26:51.666Z,97404.00
2023-10-20T17:28:23.488Z,97402.40
2023-10-20T17:29:55.590Z,97409.80
2023-10-20T17:31:27.763Z,97412.20
2023-10-20T17:32:59.679Z,97413.20
2023-10-20T17:34:32.256Z,97412.40
2023-10-20T17:36:08.854Z,97414.80
2023-10-20T17:37:41.725Z,97423.80
2023-10-20T17:39:13.568Z,97424.80
2023-10-20T17:40:45.755Z,97427.80
2023-10-20T17:42:17.563Z,97425.80
2023-10-20T17:43:52.201Z,97424.80
2023-10-20T17:45:24.423Z,97428.40
2023-10-20T17:46:56.572Z,97433.40
2023-10-20T17:48:28.574Z,97438.60
2023-10-20T17:50:00.523Z,97443.00
2023-10-20T17:51:32.926Z,97443.40
2023-10-20T17:53:11.004Z,97445.00
2023-10-20T17:54:44.569Z,97447.20
2023-10-20T17:56:16.459Z,97450.00
2023-10-20T17:57:49.399Z,97449.40
2023-10-20T17:59:22.617Z,97451.00
2023-10-20T18:00:54.547Z,97455.60
2023-10-20T18:02:26.781Z,97460.00
2023-10-20T18:03:58.741Z,97461.40
2023-10-20T18:05:30.732Z,97460.40
2023-10-20T18:07:02.899Z,97461.00
2023-10-20T18:08:35.075Z,97461.20
2023-10-20T18:10:07.658Z,97465.00
2023-10-20T18:11:39.652Z,97467.40
2023-10-20T18:13:11.568Z,97475.20
2023-10-20T18:14:43.991Z,97474.60
2023-10-20T18:16:18.429Z,97476.00
2023-10-20T18:17:50.491Z,97480.40
2023-10-20T18:19:22.609Z,97482.60
2023-10-20T18:20:54.586Z,97485.80
2023-10-20T18:22:26.559Z,97484.20
2023-10-20T18:24:00.027Z,97484.20
2023-10-20T18:25:32.286Z,97482.00
2023-10-20T18:27:04.556Z,97484.60
2023-10-20T18:28:36.949Z,97483.60
2023-10-20T18:30:09.598Z,97482.60
2023-10-20T18:31:42.529Z,97481.00
2023-10-20T18:33:14.803Z,97475.60
2023-10-20T18:34:46.848Z,97476.20
2023-10-20T18:36:18.777Z,97473.80
2023-10-20T18:37:50.771Z,97473.40
2023-10-20T18:39:25.150Z,97476.80